createdAt,value
2023-01-21T00:00:48.026Z,946.28
2023-01-21T00:03:14.403Z,946.34
2023-01-21T00:05:40.743Z,946.33
2023-01-21T00:08:07.187Z,946.31
2023-01-21T00:10:33.574Z,946.31
2023-01-21T00:13:00.060Z,946.29
2023-01-21T00:15:26.749Z,946.23
2023-01-21T00:17:52.984Z,946.36
2023-01-21T00:20:19.738Z,946.44
2023-01-21T00:22:45.719Z,946.43
2023-01-21T00:25:12.095Z,946.45
2023-01-21T00:27:38.415Z,946.34
2023-01-21T00:30:04.771Z,946.15
2023-01-21T00:32:31.525Z,946.20
2023-01-21T00:34:57.831Z,946.31
2023-01-21T00:37:24.149Z,946.37
2023-01-21T00:39:50.550Z,946.41
2023-01-21T00:42:16.869Z,946.46
2023-01-21T00:44:43.208Z,946.31
2023-01-21T00:47:09.694Z,946.18
2023-01-21T00:49:36.041Z,946.12
2023-01-21T00:52:02.445Z,946.12
2023-01-21T00:54:28.867Z,946.16
2023-01-21T00:56:55.188Z,946.24
2023-01-21T00:59:21.531Z,946.13
2023-01-21T01:01:47.936Z,946.10
2023-01-21T01:04:14.232Z,946.20
2023-01-21T01:06:40.787Z,946.36
2023-01-21T01:09:07.248Z,946.31
2023-01-21T01:11:33.593Z,946.26
2023-01-21T01:14:00.153Z,946.26
2023-01-21T01:16:26.473Z,946.15
2023-01-21T01:18:52.848Z,946.10
2023-01-21T01:21:19.270Z,946.12
2023-01-21T01:23:45.644Z,946.15
2023-01-21T01:26:11.966Z,946.22
2023-01-21T01:28:38.361Z,946.15
2023-01-21T01:31:04.735Z,946.08
2023-01-21T01:33:31.062Z,946.02
2023-01-21T01:35:57.403Z,946.14
2023-01-21T01:38:23.885Z,946.12
2023-01-21T01:40:50.180Z,946.06
2023-01-21T01:43:16.527Z,945.90
2023-01-21T01:45:42.882Z,946.01
2023-01-21T01:48:09.218Z,946.07
2023-01-21T01:50:35.546Z,945.93
2023-01-21T01:53:01.925Z,945.74
2023-01-21T01:55:28.237Z,945.82
2023-01-21T01:57:54.632Z,945.76
2023-01-21T02:00:21.062Z,945.57
2023-01-21T02:02:47.719Z,945.63
2023-01-21T02:05:14.056Z,945.63
2023-01-21T02:07:40.431Z,945.63
2023-01-21T02:10:06.749Z,945.59
2023-01-21T02:12:33.269Z,945.57
2023-01-21T02:14:59.629Z,945.66
2023-01-21T02:17:25.969Z,945.72
2023-01-21T02:19:52.287Z,945.46
2023-01-21T02:22:18.671Z,945.26
2023-01-21T02:24:45.035Z,945.34
2023-01-21T02:27:11.367Z,945.22
2023-01-21T02:29:37.754Z,945.14
2023-01-21T02:32:04.220Z,945.27
2023-01-21T02:34:31.553Z,945.16
2023-01-21T02:36:57.931Z,945.05
2023-01-21T02:39:24.255Z,945.18
2023-01-21T02:41:50.640Z,945.20
2023-01-21T02:44:17.037Z,945.22
2023-01-21T02:46:43.461Z,945.13
2023-01-21T02:49:09.755Z,945.15
2023-01-21T02:51:36.131Z,945.15
2023-01-21T02:54:02.469Z,945.18
2023-01-21T02:56:28.969Z,945.16
2023-01-21T02:58:55.297Z,945.13
2023-01-21T03:01:21.621Z,945.13
2023-01-21T03:03:48.062Z,945.00
2023-01-21T03:06:14.383Z,944.89
2023-01-21T03:08:40.742Z,944.88
2023-01-21T03:11:07.081Z,944.87
2023-01-21T03:13:33.461Z,944.89
2023-01-21T03:15:59.825Z,944.91
2023-01-21T03:18:26.156Z,944.88
2023-01-21T03:20:52.501Z,944.81
2023-01-21T03:23:18.853Z,944.77
2023-01-21T03:25:45.242Z,944.83
2023-01-21T03:28:11.563Z,944.83
2023-01-21T03:30:37.920Z,944.69
2023-01-21T03:33:04.275Z,944.63
2023-01-21T03:35:30.873Z,944.66
2023-01-21T03:37:57.187Z,944.64
2023-01-21T03:40:23.588Z,944.49
2023-01-21T03:42:50.086Z,944.60
2023-01-21T03:45:16.444Z,944.56
2023-01-21T03:47:42.805Z,944.60
2023-01-21T03:50:09.473Z,944.55
2023-01-21T03:52:35.831Z,944.45
2023-01-21T03:55:02.215Z,944.53
2023-01-21T03:57:28.563Z,944.57
2023-01-21T03:59:54.895Z,944.57
2023-01-21T04:02:21.316Z,944.47
2023-01-21T04:04:47.658Z,944.46
2023-01-21T04:07:14.017Z,944.48
2023-01-21T04:09:40.453Z,944.47
2023-01-21T04:12:06.803Z,944.51
2023-01-21T04:14:33.142Z,944.57
2023-01-21T04:16:59.460Z,944.48
2023-01-21T04:19:25.882Z,944.36
2023-01-21T04:21:52.250Z,944.26
2023-01-21T04:24:18.624Z,944.24
2023-01-21T04:26:45.084Z,944.01
2023-01-21T04:29:11.404Z,944.09
2023-01-21T04:31:37.807Z,944.23
2023-01-21T04:34:04.189Z,944.41
2023-01-21T04:36:30.541Z,944.49
2023-01-21T04:38:57.060Z,944.49
2023-01-21T04:41:25.387Z,944.42
2023-01-21T04:43:49.739Z,944.46
2023-01-21T04:46:16.130Z,944.47
2023-01-21T04:48:42.445Z,944.46
2023-01-21T04:51:08.857Z,944.56
2023-01-21T04:53:35.244Z,944.72
2023-01-21T04:56:01.599Z,944.73
2023-01-21T04:58:27.956Z,944.71
2023-01-21T05:00:54.399Z,944.74
2023-01-21T05:03:20.731Z,944.71
2023-01-21T05:05:47.107Z,944.69
2023-01-21T05:08:13.460Z,944.80
2023-01-21T05:10:39.807Z,944.69
2023-01-21T05:13:06.150Z,944.77
2023-01-21T05:15:32.551Z,944.88
2023-01-21T05:17:59.128Z,944.96
2023-01-21T05:20:25.481Z,945.03
2023-01-21T05:22:51.866Z,944.95
2023-01-21T05:25:18.254Z,944.94
2023-01-21T05:27:44.602Z,944.91
2023-01-21T05:30:10.960Z,944.93
2023-01-21T05:32:37.333Z,944.91
2023-01-21T05:35:03.687Z,944.95
2023-01-21T05:37:30.068Z,945.12
2023-01-21T05:39:56.443Z,945.03
2023-01-21T05:42:23.011Z,944.96
2023-01-21T05:44:49.337Z,944.97
2023-01-21T05:47:15.823Z,945.04
2023-01-21T05:49:42.151Z,945.06
2023-01-21T05:52:08.522Z,945.05
2023-01-21T05:54:34.877Z,945.12
2023-01-21T05:57:01.259Z,945.09
2023-01-21T05:59:27.611Z,945.09
2023-01-21T06:01:54.040Z,945.16
2023-01-21T06:04:22.441Z,945.04
2023-01-21T06:06:46.708Z,945.04
2023-01-21T06:09:13.101Z,945.04
2023-01-21T06:11:39.497Z,944.98
2023-01-21T06:14:05.803Z,945.05
2023-01-21T06:16:32.382Z,944.97
2023-01-21T06:18:58.804Z,945.14
2023-01-21T06:21:25.079Z,945.18
2023-01-21T06:23:51.589Z,945.22
2023-01-21T06:26:17.918Z,945.26
2023-01-21T06:28:44.280Z,945.27
2023-01-21T06:31:11.130Z,945.25
2023-01-21T06:33:37.229Z,945.25
2023-01-21T06:36:03.566Z,945.27
2023-01-21T06:38:29.938Z,945.32
2023-01-21T06:40:56.437Z,945.32
2023-01-21T06:43:22.749Z,945.41
2023-01-21T06:45:49.096Z,945.45
2023-01-21T06:48:15.474Z,945.36
2023-01-21T06:50:41.875Z,945.29
2023-01-21T06:53:08.256Z,945.34
2023-01-21T06:55:34.705Z,945.52
2023-01-21T06:58:01.014Z,945.53
2023-01-21T07:00:27.390Z,945.59
2023-01-21T07:02:54.112Z,945.66
2023-01-21T07:05:20.388Z,945.76
2023-01-21T07:07:46.767Z,945.73
2023-01-21T07:10:13.198Z,945.78
2023-01-21T07:12:39.529Z,945.69
2023-01-21T07:15:05.879Z,945.74
2023-01-21T07:17:32.249Z,945.79
2023-01-21T07:19:58.645Z,945.71
2023-01-21T07:22:25.103Z,945.59
2023-01-21T07:24:51.574Z,945.69
2023-01-21T07:27:17.916Z,945.71
2023-01-21T07:29:44.346Z,945.66
2023-01-21T07:32:10.687Z,945.70
2023-01-21T07:34:37.091Z,945.65
2023-01-21T07:37:03.407Z,945.61
2023-01-21T07:39:29.804Z,945.62
2023-01-21T07:41:56.164Z,945.56
2023-01-21T07:44:22.539Z,945.47
2023-01-21T07:46:49.028Z,945.48
2023-01-21T07:49:15.397Z,945.58
2023-01-21T07:51:41.798Z,945.64
2023-01-21T07:54:08.239Z,945.56
2023-01-21T07:56:34.601Z,945.69
2023-01-21T07:59:00.986Z,945.72
2023-01-21T08:01:27.472Z,945.43
2023-01-21T08:03:53.815Z,945.46
2023-01-21T08:06:20.148Z,945.51
2023-01-21T08:08:46.588Z,945.45
2023-01-21T08:11:12.936Z,945.45
2023-01-21T08:13:39.321Z,945.44
2023-01-21T08:16:05.739Z,945.80
2023-01-21T08:18:32.112Z,945.83
2023-01-21T08:20:58.474Z,945.78
2023-01-21T08:23:24.854Z,945.63
2023-01-21T08:25:51.187Z,945.52
2023-01-21T08:28:17.534Z,945.71
2023-01-21T08:30:44.118Z,945.73
2023-01-21T08:33:10.486Z,945.77
2023-01-21T08:35:36.847Z,945.79
2023-01-21T08:38:03.251Z,945.74
2023-01-21T08:40:29.620Z,945.77
2023-01-21T08:42:56.206Z,945.76
2023-01-21T08:45:22.740Z,945.71
2023-01-21T08:47:48.992Z,945.83
2023-01-21T08:50:15.535Z,945.80
2023-01-21T08:52:42.159Z,945.85
2023-01-21T08:55:08.477Z,945.94
2023-01-21T08:57:34.885Z,945.89
2023-01-21T09:00:01.196Z,945.94
2023-01-21T09:02:27.620Z,945.90
2023-01-21T09:04:54.090Z,945.87
2023-01-21T09:07:20.802Z,945.91
2023-01-21T09:09:47.112Z,945.90
2023-01-21T09:12:13.947Z,945.83
2023-01-21T09:14:40.279Z,945.79
2023-01-21T09:17:06.747Z,945.83
2023-01-21T09:19:33.103Z,945.82
2023-01-21T09:21:59.495Z,945.76
2023-01-21T09:24:25.899Z,945.70
2023-01-21T09:26:52.285Z,945.59
2023-01-21T09:29:18.617Z,945.53
2023-01-21T09:31:44.968Z,945.62
2023-01-21T09:34:12.411Z,945.69
2023-01-21T09:36:38.780Z,945.68
2023-01-21T09:39:05.181Z,945.65
2023-01-21T09:41:31.543Z,945.46
2023-01-21T09:43:57.922Z,945.49
2023-01-21T09:46:24.699Z,945.44
2023-01-21T09:48:51.998Z,945.38
2023-01-21T09:51:18.416Z,945.35
2023-01-21T09:53:44.759Z,945.45
2023-01-21T09:56:11.139Z,945.47
2023-01-21T09:58:37.558Z,945.40
2023-01-21T10:01:03.962Z,945.36
2023-01-21T10:03:30.257Z,945.25
2023-01-21T10:05:56.593Z,945.33
2023-01-21T10:08:22.992Z,945.30
2023-01-21T10:10:49.394Z,945.14
2023-01-21T10:13:15.724Z,945.25
2023-01-21T10:15:42.103Z,945.21
2023-01-21T10:18:08.480Z,945.23
2023-01-21T10:20:34.971Z,945.10
2023-01-21T10:23:02.360Z,945.12
2023-01-21T10:25:29.167Z,945.13
2023-01-21T10:27:55.534Z,945.13
2023-01-21T10:30:21.929Z,945.11
2023-01-21T10:32:48.294Z,945.16
2023-01-21T10:35:16.155Z,945.10
2023-01-21T10:37:43.342Z,945.06
2023-01-21T10:40:09.815Z,945.05
2023-01-21T10:42:36.250Z,945.06
2023-01-21T10:45:02.631Z,944.93
2023-01-21T10:47:29.031Z,944.85
2023-01-21T10:49:55.444Z,944.74
2023-01-21T10:52:21.828Z,944.75
2023-01-21T10:54:48.231Z,944.75
2023-01-21T10:57:14.605Z,944.73
2023-01-21T10:59:40.976Z,944.77
2023-01-21T11:02:07.561Z,944.79
2023-01-21T11:04:33.850Z,944.79
2023-01-21T11:07:00.246Z,944.71
2023-01-21T11:09:26.822Z,944.59
2023-01-21T11:11:53.181Z,944.54
2023-01-21T11:14:21.267Z,944.56
2023-01-21T11:16:45.930Z,944.61
2023-01-21T11:19:12.334Z,944.67
2023-01-21T11:21:38.715Z,944.68
2023-01-21T11:24:05.084Z,944.66
2023-01-21T11:26:31.623Z,944.77
2023-01-21T11:28:58.008Z,944.78
2023-01-21T11:31:24.459Z,944.74
2023-01-21T11:33:50.834Z,944.68
2023-01-21T11:36:17.206Z,944.55
2023-01-21T11:38:43.569Z,944.59
2023-01-21T11:41:11.072Z,944.57
2023-01-21T11:43:36.309Z,944.50
2023-01-21T11:46:02.733Z,944.50
2023-01-21T11:48:29.980Z,944.50
2023-01-21T11:50:56.722Z,944.48
2023-01-21T11:53:23.010Z,944.47
2023-01-21T11:55:49.364Z,944.51
2023-01-21T11:58:15.768Z,944.57
2023-01-21T12:00:42.195Z,944.55
2023-01-21T12:03:08.548Z,944.50
2023-01-21T12:05:34.893Z,944.51
2023-01-21T12:08:01.389Z,944.58
2023-01-21T12:10:27.729Z,944.61
2023-01-21T12:12:54.048Z,944.57
2023-01-21T12:15:20.529Z,944.60
2023-01-21T12:17:46.880Z,944.57
2023-01-21T12:20:13.231Z,944.40
2023-01-21T12:22:39.880Z,944.44
2023-01-21T12:25:06.280Z,944.35
2023-01-21T12:27:32.609Z,944.38
2023-01-21T12:29:58.980Z,944.25
2023-01-21T12:32:25.314Z,944.22
2023-01-21T12:34:51.792Z,944.21
2023-01-21T12:37:18.065Z,944.23
2023-01-21T12:39:44.418Z,944.28
2023-01-21T12:42:11.031Z,944.39
2023-01-21T12:44:37.532Z,944.45
2023-01-21T12:47:03.880Z,944.65
2023-01-21T12:49:30.425Z,944.55
2023-01-21T12:51:56.813Z,944.68
2023-01-21T12:54:23.165Z,944.61
2023-01-21T12:56:49.770Z,944.66
2023-01-21T12:59:16.089Z,944.90
2023-01-21T13:01:42.520Z,944.80
2023-01-21T13:04:08.830Z,944.59
2023-01-21T13:06:52.396Z,944.65
2023-01-21T13:09:01.566Z,944.61
2023-01-21T13:11:28.031Z,944.83
2023-01-21T13:13:54.414Z,944.76
2023-01-21T13:16:20.755Z,944.67
2023-01-21T13:18:47.134Z,944.84
2023-01-21T13:21:13.469Z,944.80
2023-01-21T13:23:39.817Z,944.97
2023-01-21T13:26:06.190Z,944.97
2023-01-21T13:28:32.583Z,944.96
2023-01-21T13:30:59.107Z,944.84
2023-01-21T13:33:25.443Z,944.84
2023-01-21T13:35:51.760Z,944.96
2023-01-21T13:38:18.405Z,945.05
2023-01-21T13:40:44.719Z,945.05
2023-01-21T13:43:11.121Z,944.93
2023-01-21T13:45:37.580Z,944.96
2023-01-21T13:48:03.894Z,945.12
2023-01-21T13:50:30.254Z,945.18
2023-01-21T13:52:56.692Z,945.20
2023-01-21T13:55:23.022Z,945.25
2023-01-21T13:57:49.411Z,945.26
2023-01-21T14:00:16.099Z,945.22
2023-01-21T14:02:42.191Z,945.42
2023-01-21T14:05:08.546Z,945.44
2023-01-21T14:07:35.112Z,945.40
2023-01-21T14:10:01.410Z,945.41
2023-01-21T14:12:27.797Z,945.45
2023-01-21T14:14:54.205Z,945.61
2023-01-21T14:17:20.647Z,945.59
2023-01-21T14:19:47.011Z,945.68
2023-01-21T14:22:13.344Z,945.60
2023-01-21T14:24:39.966Z,945.67
2023-01-21T14:27:06.400Z,945.72
2023-01-21T14:29:32.748Z,945.87
2023-01-21T14:31:59.556Z,945.64
2023-01-21T14:34:25.849Z,945.68
2023-01-21T14:36:52.358Z,945.71
2023-01-21T14:39:18.635Z,945.78
2023-01-21T14:41:45.089Z,945.80
2023-01-21T14:44:11.443Z,945.78
2023-01-21T14:46:37.828Z,945.72
2023-01-21T14:49:04.156Z,945.81
2023-01-21T14:51:30.632Z,945.94
2023-01-21T14:53:56.930Z,946.05
2023-01-21T14:56:23.379Z,946.22
2023-01-21T14:58:49.815Z,946.23
2023-01-21T15:01:16.266Z,946.14
2023-01-21T15:03:42.512Z,945.96
2023-01-21T15:06:08.917Z,945.99
2023-01-21T15:08:35.243Z,945.89
2023-01-21T15:11:01.659Z,945.78
2023-01-21T15:13:28.178Z,946.07
2023-01-21T15:15:54.561Z,946.18
2023-01-21T15:18:20.926Z,946.17
2023-01-21T15:20:47.285Z,946.22
2023-01-21T15:23:13.633Z,946.32
2023-01-21T15:25:40.086Z,946.18
2023-01-21T15:28:06.454Z,946.06
2023-01-21T15:30:32.944Z,945.98
2023-01-21T15:33:01.746Z,946.06
2023-01-21T15:35:25.812Z,946.15
2023-01-21T15:37:52.145Z,946.19
2023-01-21T15:40:18.569Z,946.22
2023-01-21T15:42:44.886Z,946.23
2023-01-21T15:45:11.281Z,946.20
2023-01-21T15:47:37.636Z,946.21
2023-01-21T15:50:04.035Z,946.33
2023-01-21T15:52:30.369Z,946.22
2023-01-21T15:54:56.866Z,946.27
2023-01-21T15:57:23.211Z,946.23
2023-01-21T15:59:49.585Z,946.24
2023-01-21T16:02:15.920Z,946.29
2023-01-21T16:04:42.302Z,946.29
2023-01-21T16:07:08.710Z,946.25
2023-01-21T16:09:35.066Z,946.29
2023-01-21T16:12:01.426Z,946.45
2023-01-21T16:14:27.791Z,946.47
2023-01-21T16:16:54.148Z,946.45
2023-01-21T16:19:20.536Z,946.40
2023-01-21T16:21:46.947Z,946.50
2023-01-21T16:24:13.426Z,946.48
2023-01-21T16:26:39.785Z,946.43
2023-01-21T16:29:06.181Z,946.53
2023-01-21T16:31:32.686Z,946.49
2023-01-21T16:33:58.927Z,946.60
2023-01-21T16:36:25.299Z,946.54
2023-01-21T16:38:51.684Z,946.56
2023-01-21T16:41:18.098Z,946.65
2023-01-21T16:43:44.625Z,946.61
2023-01-21T16:46:10.963Z,946.72
2023-01-21T16:48:37.319Z,946.65
2023-01-21T16:51:03.931Z,946.71
2023-01-21T16:53:30.258Z,946.64
2023-01-21T16:55:56.606Z,946.63
2023-01-21T16:58:25.207Z,946.67
2023-01-21T17:00:51.534Z,946.75
2023-01-21T17:03:17.949Z,946.83
2023-01-21T17:05:44.275Z,946.92
2023-01-21T17:08:10.659Z,946.93
2023-01-21T17:10:37.043Z,946.96
2023-01-21T17:13:03.413Z,946.91
2023-01-21T17:15:29.875Z,946.97
2023-01-21T17:17:56.184Z,947.04
2023-01-21T17:20:22.550Z,947.02
2023-01-21T17:22:48.899Z,947.15
2023-01-21T17:25:15.653Z,947.13
2023-01-21T17:27:41.648Z,947.19
2023-01-21T17:30:08.007Z,947.15
2023-01-21T17:32:34.402Z,947.06
2023-01-21T17:35:00.851Z,947.09
2023-01-21T17:37:27.232Z,947.14
2023-01-21T17:39:53.634Z,947.06
2023-01-21T17:42:20.005Z,947.15
2023-01-21T17:44:46.392Z,947.16
2023-01-21T17:47:12.773Z,947.22
2023-01-21T17:49:39.153Z,947.26
2023-01-21T17:52:05.562Z,947.17
2023-01-21T17:54:31.882Z,947.16
2023-01-21T17:56:58.330Z,947.15
2023-01-21T17:59:24.855Z,947.17
2023-01-21T18:01:51.331Z,947.26
2023-01-21T18:04:17.650Z,947.39
2023-01-21T18:06:44.049Z,947.43
2023-01-21T18:09:10.376Z,947.45
2023-01-21T18:11:36.727Z,947.47
2023-01-21T18:14:03.317Z,947.45
2023-01-21T18:16:29.751Z,947.46
2023-01-21T18:18:56.084Z,947.46
2023-01-21T18:21:22.409Z,947.39
2023-01-21T18:23:48.813Z,947.41
2023-01-21T18:26:15.114Z,947.51
2023-01-21T18:28:41.928Z,947.50
2023-01-21T18:31:08.295Z,947.57
2023-01-21T18:33:34.572Z,947.53
2023-01-21T18:36:00.931Z,947.36
2023-01-21T18:38:27.698Z,947.44
2023-01-21T18:40:56.067Z,947.47
2023-01-21T18:43:22.424Z,947.59
2023-01-21T18:45:48.781Z,947.54
2023-01-21T18:48:15.184Z,947.65
2023-01-21T18:50:41.579Z,947.65
2023-01-21T18:53:07.967Z,947.73
2023-01-21T18:55:34.606Z,947.63
2023-01-21T18:58:00.931Z,947.63
2023-01-21T19:00:27.316Z,947.63
2023-01-21T19:02:53.807Z,947.72
2023-01-21T19:05:20.579Z,947.79
2023-01-21T19:07:46.999Z,947.86
2023-01-21T19:10:13.443Z,947.86
2023-01-21T19:12:39.757Z,947.83
2023-01-21T19:15:06.115Z,947.87
2023-01-21T19:17:32.665Z,947.90
2023-01-21T19:19:59.125Z,947.79
2023-01-21T19:22:25.516Z,947.80
2023-01-21T19:24:51.896Z,947.85
2023-01-21T19:27:18.569Z,947.86
2023-01-21T19:29:44.947Z,947.86
2023-01-21T19:32:14.190Z,947.93
2023-01-21T19:34:37.738Z,947.94
2023-01-21T19:37:04.097Z,948.03
2023-01-21T19:39:30.483Z,948.01
2023-01-21T19:42:07.597Z,948.02
2023-01-21T19:44:23.219Z,947.99
2023-01-21T19:46:49.624Z,947.97
2023-01-21T19:49:15.976Z,947.97
2023-01-21T19:51:42.336Z,947.99
2023-01-21T19:54:08.651Z,948.02
2023-01-21T19:56:34.971Z,948.02
2023-01-21T19:59:01.325Z,948.04
2023-01-21T20:01:27.833Z,948.10
2023-01-21T20:04:00.473Z,948.15
2023-01-21T20:06:21.829Z,948.15
2023-01-21T20:08:48.182Z,948.17
2023-01-21T20:11:15.511Z,948.20
2023-01-21T20:13:42.881Z,948.17
2023-01-21T20:16:09.271Z,948.21
2023-01-21T20:18:35.988Z,948.35
2023-01-21T20:21:02.341Z,948.28
2023-01-21T20:23:28.717Z,948.35
2023-01-21T20:25:55.083Z,948.29
2023-01-21T20:28:21.431Z,948.29
2023-01-21T20:30:47.831Z,948.25
2023-01-21T20:33:14.227Z,948.31
2023-01-21T20:35:40.570Z,948.27
2023-01-21T20:38:06.919Z,948.30
2023-01-21T20:40:33.285Z,948.28
2023-01-21T20:42:59.745Z,948.26
2023-01-21T20:45:28.344Z,948.31
2023-01-21T20:47:54.641Z,948.32
2023-01-21T20:50:21.037Z,948.37
2023-01-21T20:52:47.571Z,948.43
2023-01-21T20:55:13.913Z,948.48
2023-01-21T20:57:40.275Z,948.58
2023-01-21T21:00:06.738Z,948.56
2023-01-21T21:02:33.218Z,948.59
2023-01-21T21:04:59.456Z,948.69
2023-01-21T21:07:26.119Z,948.74
2023-01-21T21:09:52.507Z,948.78
2023-01-21T21:12:18.871Z,948.87
2023-01-21T21:14:45.213Z,948.94
2023-01-21T21:17:11.575Z,949.02
2023-01-21T21:19:37.971Z,949.06
2023-01-21T21:22:04.363Z,949.14
2023-01-21T21:24:30.887Z,949.19
2023-01-21T21:26:57.312Z,949.23
2023-01-21T21:29:23.661Z,949.22
2023-01-21T21:31:50.089Z,949.15
2023-01-21T21:34:16.850Z,949.19
2023-01-21T21:36:43.234Z,949.24
2023-01-21T21:39:09.609Z,949.14
2023-01-21T21:41:36.154Z,949.17
2023-01-21T21:44:02.535Z,949.11
2023-01-21T21:46:28.912Z,949.05
2023-01-21T21:48:55.293Z,949.05
2023-01-21T21:51:21.721Z,949.05
2023-01-21T21:53:47.995Z,949.06
2023-01-21T21:56:14.411Z,949.04
2023-01-21T21:58:40.938Z,949.01
2023-01-21T22:01:07.296Z,949.04
2023-01-21T22:03:33.660Z,949.13
2023-01-21T22:05:59.979Z,949.08
2023-01-21T22:08:26.384Z,949.20
2023-01-21T22:10:52.716Z,949.14
2023-01-21T22:13:19.069Z,949.10
2023-01-21T22:15:45.452Z,949.09
2023-01-21T22:18:11.806Z,949.09
2023-01-21T22:20:38.172Z,949.12
2023-01-21T22:23:04.573Z,949.04
2023-01-21T22:25:30.917Z,949.11
2023-01-21T22:27:57.295Z,949.23
2023-01-21T22:30:23.669Z,949.28
2023-01-21T22:32:50.078Z,949.31
2023-01-21T22:35:16.640Z,949.40
2023-01-21T22:37:42.852Z,949.40
2023-01-21T22:40:09.210Z,949.45
2023-01-21T22:42:35.656Z,949.36
2023-01-21T22:45:02.079Z,949.32
2023-01-21T22:47:28.472Z,949.37
2023-01-21T22:49:54.796Z,949.51
2023-01-21T22:52:21.268Z,949.61
2023-01-21T22:54:49.514Z,949.61
2023-01-21T22:57:14.138Z,949.52
2023-01-21T22:59:40.544Z,949.50
2023-01-21T23:02:06.916Z,949.44
2023-01-21T23:04:33.261Z,949.39
2023-01-21T23:06:59.613Z,949.41
2023-01-21T23:09:25.941Z,949.51
2023-01-21T23:11:52.328Z,949.51
2023-01-21T23:14:18.715Z,949.52
2023-01-21T23:16:45.067Z,949.53
2023-01-21T23:19:11.397Z,949.59
2023-01-21T23:21:37.995Z,949.66
2023-01-21T23:24:04.376Z,949.69
2023-01-21T23:26:30.767Z,949.69
2023-01-21T23:28:57.207Z,949.68
2023-01-21T23:31:23.689Z,949.67
2023-01-21T23:33:49.985Z,949.66
2023-01-21T23:36:16.395Z,949.63
2023-01-21T23:38:42.761Z,949.71
2023-01-21T23:41:09.140Z,949.85
2023-01-21T23:43:35.524Z,949.89
2023-01-21T23:46:01.914Z,949.83
2023-01-21T23:48:28.246Z,949.85
2023-01-21T23:50:54.626Z,949.85
2023-01-21T23:53:21.212Z,949.91
2023-01-21T23:55:47.590Z,949.91
2023-01-21T23:58:13.949Z,950.00
